createdAt,value
2018-08-02T00:00:10.387Z,19.40
2018-08-02T00:02:38.893Z,19.40
2018-08-02T00:05:07.461Z,19.40
2018-08-02T00:07:35.953Z,19.30
2018-08-02T00:10:04.662Z,19.30
2018-08-02T00:12:38.177Z,19.20
2018-08-02T00:15:08.750Z,19.20
2018-08-02T00:17:40.798Z,19.10
2018-08-02T00:20:10.545Z,19.10
2018-08-02T00:22:39.237Z,19.10
2018-08-02T00:25:08.777Z,19.00
2018-08-02T00:27:37.433Z,18.90
2018-08-02T00:30:07.093Z,19.00
2018-08-02T00:32:35.613Z,19.00
2018-08-02T00:35:04.306Z,19.00
2018-08-02T00:37:32.774Z,19.00
2018-08-02T00:40:01.316Z,19.00
2018-08-02T00:42:29.885Z,19.10
2018-08-02T00:44:58.467Z,19.10
2018-08-02T00:47:26.966Z,19.10
2018-08-02T00:49:55.533Z,19.00
2018-08-02T00:52:24.030Z,19.00
2018-08-02T00:54:52.961Z,18.90
2018-08-02T00:57:21.473Z,18.90
2018-08-02T00:59:50.060Z,19.00
2018-08-02T01:02:18.609Z,18.90
2018-08-02T01:04:47.233Z,18.90
2018-08-02T01:07:15.725Z,18.90
2018-08-02T01:09:44.271Z,18.80
2018-08-02T01:12:12.785Z,18.70
2018-08-02T01:14:41.364Z,18.60
2018-08-02T01:17:09.917Z,18.50
2018-08-02T01:19:38.504Z,18.50
2018-08-02T01:22:07.014Z,18.40
2018-08-02T01:24:35.533Z,18.40
2018-08-02T01:27:04.089Z,18.30
2018-08-02T01:29:32.617Z,18.20
2018-08-02T01:32:01.169Z,18.10
2018-08-02T01:34:29.677Z,18.10
2018-08-02T01:36:58.286Z,18.10
2018-08-02T01:39:26.798Z,18.10
2018-08-02T01:41:55.382Z,18.10
2018-08-02T01:44:35.195Z,18.00
2018-08-02T01:47:04.294Z,18.00
2018-08-02T01:49:32.821Z,18.00
2018-08-02T01:52:01.412Z,18.10
2018-08-02T01:54:29.947Z,18.10
2018-08-02T01:56:58.507Z,18.10
2018-08-02T01:59:27.037Z,18.10
2018-08-02T02:01:55.601Z,18.00
2018-08-02T02:04:24.117Z,18.00
2018-08-02T02:06:52.661Z,17.90
2018-08-02T02:09:21.182Z,17.90
2018-08-02T02:11:49.757Z,17.90
2018-08-02T02:14:18.323Z,17.90
2018-08-02T02:16:46.845Z,17.90
2018-08-02T02:19:15.355Z,17.80
2018-08-02T02:21:43.873Z,17.80
2018-08-02T02:24:12.385Z,17.80
2018-08-02T02:26:40.918Z,18.00
2018-08-02T02:29:09.687Z,18.10
2018-08-02T02:31:38.233Z,18.10
2018-08-02T02:34:06.782Z,18.10
2018-08-02T02:36:35.285Z,18.10
2018-08-02T02:39:05.936Z,18.10
2018-08-02T02:41:34.490Z,18.10
2018-08-02T02:44:03.211Z,18.10
2018-08-02T02:46:31.707Z,18.10
2018-08-02T02:49:00.240Z,18.00
2018-08-02T02:51:28.797Z,18.00
2018-08-02T02:53:57.356Z,17.80
2018-08-02T02:56:25.848Z,17.80
2018-08-02T02:58:54.400Z,17.80
2018-08-02T03:01:22.948Z,17.80
2018-08-02T03:03:51.549Z,17.70
2018-08-02T03:06:20.066Z,17.70
2018-08-02T03:08:48.581Z,17.60
2018-08-02T03:11:17.066Z,17.60
2018-08-02T03:13:45.589Z,17.60
2018-08-02T03:16:14.113Z,17.60
2018-08-02T03:18:42.820Z,17.60
2018-08-02T03:23:39.521Z,17.50
2018-08-02T03:28:36.239Z,17.30
2018-08-02T03:31:04.821Z,17.30
2018-08-02T03:33:33.349Z,17.30
2018-08-02T03:36:01.853Z,17.30
2018-08-02T03:38:30.389Z,17.30
2018-08-02T03:40:59.000Z,17.30
2018-08-02T03:43:27.543Z,17.40
2018-08-02T03:45:56.115Z,17.40
2018-08-02T03:48:24.633Z,17.40
2018-08-02T03:50:53.289Z,17.50
2018-08-02T03:53:21.785Z,17.50
2018-08-02T03:55:50.329Z,17.50
2018-08-02T03:58:18.852Z,17.50
2018-08-02T04:00:47.581Z,17.50
2018-08-02T04:03:16.143Z,17.60
2018-08-02T04:05:44.769Z,17.50
2018-08-02T04:08:13.345Z,17.50
2018-08-02T04:10:41.881Z,17.50
2018-08-02T04:13:10.378Z,17.50
2018-08-02T04:15:38.965Z,17.50
2018-08-02T04:18:07.453Z,17.50
2018-08-02T04:20:35.969Z,17.50
2018-08-02T04:23:04.501Z,17.50
2018-08-02T04:25:32.992Z,17.50
2018-08-02T04:28:01.506Z,17.50
2018-08-02T04:30:30.061Z,17.50
2018-08-02T04:32:58.610Z,17.60
2018-08-02T04:35:27.094Z,17.60
2018-08-02T04:37:55.677Z,17.70
2018-08-02T04:40:24.157Z,17.70
2018-08-02T04:42:52.741Z,17.80
2018-08-02T04:45:21.264Z,17.80
2018-08-02T04:47:49.810Z,17.90
2018-08-02T04:50:18.317Z,18.00
2018-08-02T04:52:46.874Z,18.10
2018-08-02T04:55:15.373Z,18.20
2018-08-02T04:57:43.893Z,18.30
2018-08-02T05:00:12.413Z,18.30
2018-08-02T05:02:40.962Z,18.40
2018-08-02T05:05:09.494Z,18.50
2018-08-02T05:07:38.035Z,18.60
2018-08-02T05:12:34.970Z,18.70
2018-08-02T05:15:03.536Z,18.70
2018-08-02T05:17:32.031Z,18.80
2018-08-02T05:20:00.584Z,18.90
2018-08-02T05:22:29.139Z,19.00
2018-08-02T05:24:58.121Z,19.00
2018-08-02T05:27:26.641Z,19.20
2018-08-02T05:29:55.151Z,19.30
2018-08-02T05:32:23.678Z,19.40
2018-08-02T05:34:52.244Z,19.50
2018-08-02T05:37:20.746Z,19.60
2018-08-02T05:39:49.245Z,19.80
2018-08-02T05:42:17.802Z,19.90
2018-08-02T05:44:46.309Z,20.10
2018-08-02T05:47:14.833Z,20.20
2018-08-02T05:49:43.397Z,20.40
2018-08-02T05:52:11.975Z,20.50
2018-08-02T05:54:40.472Z,20.70
2018-08-02T05:57:09.027Z,20.80
2018-08-02T05:59:37.501Z,21.00
2018-08-02T06:02:06.171Z,21.20
2018-08-02T06:04:34.654Z,21.50
2018-08-02T06:07:03.189Z,23.40
2018-08-02T06:09:31.701Z,26.50
2018-08-02T06:12:00.190Z,29.00
2018-08-02T06:14:28.768Z,30.60
2018-08-02T06:16:57.274Z,32.00
2018-08-02T06:19:25.852Z,32.60
2018-08-02T06:21:54.345Z,32.90
2018-08-02T06:24:22.849Z,33.20
2018-08-02T06:26:51.334Z,33.60
2018-08-02T06:29:19.881Z,34.40
2018-08-02T06:31:48.429Z,34.30
2018-08-02T06:34:16.957Z,34.50
2018-08-02T06:36:45.462Z,34.80
2018-08-02T06:39:14.313Z,36.00
2018-08-02T06:41:43.050Z,35.90
2018-08-02T06:44:11.693Z,36.30
2018-08-02T06:46:40.293Z,36.50
2018-08-02T06:49:08.794Z,37.20
2018-08-02T06:51:37.322Z,37.80
2018-08-02T06:54:05.922Z,38.10
2018-08-02T06:56:34.447Z,38.80
2018-08-02T06:59:03.007Z,39.20
2018-08-02T07:01:31.546Z,39.00
2018-08-02T07:04:00.085Z,38.40
2018-08-02T07:06:28.632Z,38.60
2018-08-02T07:08:57.244Z,39.00
2018-08-02T07:11:25.776Z,38.60
2018-08-02T07:13:54.281Z,38.30
2018-08-02T07:16:22.806Z,38.90
2018-08-02T07:18:58.024Z,39.70
2018-08-02T07:21:26.592Z,39.50
2018-08-02T07:23:55.105Z,38.90
2018-08-02T07:26:23.860Z,37.90
2018-08-02T07:28:53.777Z,38.10
2018-08-02T07:31:22.358Z,38.90
2018-08-02T07:33:51.173Z,38.20
2018-08-02T07:36:19.681Z,38.90
2018-08-02T07:38:48.254Z,38.90
2018-08-02T07:41:16.827Z,39.10
2018-08-02T07:43:45.310Z,39.10
2018-08-02T07:46:14.191Z,39.50
2018-08-02T07:48:42.741Z,40.20
2018-08-02T07:51:11.561Z,39.20
2018-08-02T07:56:08.220Z,38.20
2018-08-02T07:58:36.761Z,37.70
2018-08-02T08:01:05.269Z,38.20
2018-08-02T08:03:33.817Z,39.20
2018-08-02T08:06:02.425Z,39.50
2018-08-02T08:08:30.998Z,40.20
2018-08-02T08:10:59.530Z,40.90
2018-08-02T08:13:28.005Z,41.20
2018-08-02T08:15:56.636Z,41.30
2018-08-02T08:18:25.094Z,41.50
2018-08-02T08:20:53.922Z,41.30
2018-08-02T08:23:22.439Z,39.80
2018-08-02T08:25:50.957Z,39.10
2018-08-02T08:28:19.450Z,39.50
2018-08-02T08:30:48.003Z,39.80
2018-08-02T08:33:16.524Z,40.80
2018-08-02T08:35:45.050Z,40.30
2018-08-02T08:38:13.541Z,41.00
2018-08-02T08:40:42.129Z,41.00
2018-08-02T08:43:10.666Z,40.90
2018-08-02T08:45:39.181Z,41.20
2018-08-02T08:48:07.698Z,41.90
2018-08-02T08:50:36.298Z,41.60
2018-08-02T08:53:04.857Z,41.70
2018-08-02T08:55:33.410Z,41.80
2018-08-02T08:58:01.977Z,40.90
2018-08-02T09:00:30.512Z,40.30
2018-08-02T09:02:59.026Z,40.70
2018-08-02T09:05:27.502Z,40.10
2018-08-02T09:07:56.014Z,40.10
2018-08-02T09:10:24.538Z,40.20
2018-08-02T09:12:53.081Z,40.60
2018-08-02T09:15:21.589Z,40.90
2018-08-02T09:17:50.124Z,40.80
2018-08-02T09:20:18.621Z,40.80
2018-08-02T09:22:47.108Z,40.40
2018-08-02T09:25:15.650Z,40.60
2018-08-02T09:27:44.137Z,40.90
2018-08-02T09:30:12.721Z,40.40
2018-08-02T09:32:41.266Z,39.90
2018-08-02T09:35:09.802Z,39.20
2018-08-02T09:37:38.318Z,39.70
2018-08-02T09:40:06.853Z,38.80
2018-08-02T09:45:03.724Z,38.90
2018-08-02T09:47:32.269Z,38.90
2018-08-02T09:50:07.221Z,39.60
2018-08-02T09:52:35.722Z,39.80
2018-08-02T09:55:04.381Z,39.80
2018-08-02T09:57:32.875Z,40.10
2018-08-02T10:00:01.436Z,40.20
2018-08-02T10:02:30.023Z,40.50
2018-08-02T10:04:58.510Z,40.40
2018-08-02T10:07:27.073Z,39.70
2018-08-02T10:09:55.585Z,39.80
2018-08-02T10:12:24.159Z,39.70
2018-08-02T10:14:52.689Z,39.30
2018-08-02T10:17:21.254Z,39.70
2018-08-02T10:19:49.777Z,40.10
2018-08-02T10:22:18.311Z,40.00
2018-08-02T10:24:46.826Z,39.10
2018-08-02T10:29:43.525Z,39.60
2018-08-02T10:32:12.083Z,39.50
2018-08-02T10:34:40.608Z,39.70
2018-08-02T10:37:09.150Z,39.60
2018-08-02T10:39:37.671Z,39.70
2018-08-02T10:42:06.245Z,40.10
2018-08-02T10:44:34.790Z,39.60
2018-08-02T10:47:03.296Z,39.60
2018-08-02T10:49:31.837Z,39.80
2018-08-02T10:52:00.367Z,38.40
2018-08-02T10:54:28.959Z,38.10
2018-08-02T10:56:57.477Z,39.00
2018-08-02T10:59:26.039Z,38.60
2018-08-02T11:01:54.529Z,38.10
2018-08-02T11:04:23.033Z,37.40
2018-08-02T11:06:51.611Z,36.40
2018-08-02T11:09:20.213Z,35.90
2018-08-02T11:11:48.705Z,35.70
2018-08-02T11:14:17.240Z,35.40
2018-08-02T11:16:45.793Z,35.10
2018-08-02T11:19:14.281Z,34.80
2018-08-02T11:21:42.844Z,34.60
2018-08-02T11:24:11.365Z,34.50
2018-08-02T11:26:39.950Z,34.30
2018-08-02T11:29:08.428Z,34.00
2018-08-02T11:31:36.996Z,33.80
2018-08-02T11:34:05.485Z,33.90
2018-08-02T11:36:34.037Z,34.00
2018-08-02T11:39:02.541Z,34.20
2018-08-02T11:41:31.149Z,34.20
2018-08-02T11:43:59.715Z,34.10
2018-08-02T11:46:28.181Z,33.90
2018-08-02T11:48:56.701Z,33.80
2018-08-02T11:51:25.209Z,34.00
2018-08-02T11:53:53.711Z,34.10
2018-08-02T11:56:22.206Z,34.30
2018-08-02T11:58:50.850Z,34.50
2018-08-02T12:01:19.324Z,34.50
2018-08-02T12:03:47.816Z,34.40
2018-08-02T12:06:16.301Z,34.40
2018-08-02T12:08:44.817Z,34.60
2018-08-02T12:11:13.453Z,34.80
2018-08-02T12:13:42.025Z,34.50
2018-08-02T12:16:10.577Z,34.50
2018-08-02T12:18:39.159Z,34.80
2018-08-02T12:21:07.649Z,35.00
2018-08-02T12:23:36.241Z,34.90
2018-08-02T12:26:04.918Z,34.50
2018-08-02T12:28:33.430Z,34.20
2018-08-02T12:31:01.949Z,34.40
2018-08-02T12:33:30.473Z,34.40
2018-08-02T12:35:59.017Z,34.00
2018-08-02T12:38:27.703Z,33.80
2018-08-02T12:40:56.149Z,33.70
2018-08-02T12:43:24.743Z,34.00
2018-08-02T12:45:53.309Z,34.00
2018-08-02T12:48:21.775Z,34.10
2018-08-02T12:50:50.397Z,34.20
2018-08-02T12:53:18.853Z,34.10
2018-08-02T12:55:47.430Z,34.20
2018-08-02T12:58:16.719Z,34.10
2018-08-02T13:00:45.260Z,34.20
2018-08-02T13:03:13.806Z,34.20
2018-08-02T13:05:42.301Z,33.90
2018-08-02T13:08:10.941Z,34.00
2018-08-02T13:10:39.476Z,34.10
2018-08-02T13:13:08.021Z,34.30
2018-08-02T13:15:36.602Z,34.20
2018-08-02T13:18:05.259Z,34.40
2018-08-02T13:20:33.737Z,34.40
2018-08-02T13:23:02.249Z,34.50
2018-08-02T13:25:30.724Z,34.40
2018-08-02T13:27:59.296Z,34.30
2018-08-02T13:30:27.797Z,34.40
2018-08-02T13:32:56.334Z,34.20
2018-08-02T13:35:24.932Z,34.20
2018-08-02T13:37:53.474Z,34.10
2018-08-02T13:40:21.978Z,34.20
2018-08-02T13:42:50.597Z,34.30
2018-08-02T13:45:19.153Z,34.30
2018-08-02T13:47:47.682Z,34.40
2018-08-02T13:50:16.174Z,34.50
2018-08-02T13:52:44.751Z,34.50
2018-08-02T13:55:13.221Z,34.40
2018-08-02T13:57:41.754Z,34.30
2018-08-02T14:00:10.376Z,34.40
2018-08-02T14:02:38.901Z,34.20
2018-08-02T14:05:07.450Z,34.00
2018-08-02T14:07:36.001Z,33.90
2018-08-02T14:10:04.734Z,33.90
2018-08-02T14:12:33.276Z,34.00
2018-08-02T14:15:01.964Z,34.20
2018-08-02T14:17:30.598Z,34.20
2018-08-02T14:19:58.961Z,34.20
2018-08-02T14:22:27.567Z,34.20
2018-08-02T14:24:56.054Z,34.00
2018-08-02T14:27:24.971Z,34.10
2018-08-02T14:29:53.609Z,34.10
2018-08-02T14:32:22.217Z,34.00
2018-08-02T14:34:50.735Z,34.00
2018-08-02T14:37:19.216Z,34.00
2018-08-02T14:39:47.733Z,34.00
2018-08-02T14:42:16.210Z,34.00
2018-08-02T14:47:13.032Z,34.30
2018-08-02T14:49:41.550Z,34.30
2018-08-02T14:52:10.125Z,34.10
2018-08-02T14:54:38.666Z,34.10
2018-08-02T14:57:07.175Z,34.00
2018-08-02T14:59:35.743Z,33.90
2018-08-02T15:02:04.336Z,33.90
2018-08-02T15:04:32.789Z,34.00
2018-08-02T15:07:01.354Z,34.00
2018-08-02T15:09:30.051Z,34.00
2018-08-02T15:11:58.573Z,33.90
2018-08-02T15:14:27.214Z,34.00
2018-08-02T15:16:55.838Z,34.10
2018-08-02T15:19:24.509Z,34.20
2018-08-02T15:21:53.453Z,34.10
2018-08-02T15:24:22.221Z,34.00
2018-08-02T15:26:51.369Z,34.10
2018-08-02T15:29:20.292Z,34.10
2018-08-02T15:31:49.476Z,34.30
2018-08-02T15:34:18.009Z,34.10
2018-08-02T15:36:48.138Z,34.20
2018-08-02T15:39:16.943Z,34.00
2018-08-02T15:41:45.465Z,34.10
2018-08-02T15:44:14.138Z,34.30
2018-08-02T15:46:42.613Z,34.30
2018-08-02T15:49:11.141Z,34.50
2018-08-02T15:51:39.671Z,34.60
2018-08-02T15:54:08.207Z,34.70
2018-08-02T15:56:36.719Z,34.70
2018-08-02T15:59:05.301Z,34.80
2018-08-02T16:01:33.905Z,34.80
2018-08-02T16:04:02.475Z,34.90
2018-08-02T16:06:31.113Z,34.90
2018-08-02T16:08:59.625Z,34.70
2018-08-02T16:11:28.251Z,34.70
2018-08-02T16:13:56.690Z,34.70
2018-08-02T16:16:25.191Z,34.70
2018-08-02T16:18:53.833Z,34.80
2018-08-02T16:21:22.330Z,34.80
2018-08-02T16:23:50.907Z,34.70
2018-08-02T16:26:19.436Z,34.80
2018-08-02T16:28:47.977Z,34.90
2018-08-02T16:31:16.564Z,35.00
2018-08-02T16:33:45.058Z,34.90
2018-08-02T16:36:13.709Z,35.00
2018-08-02T16:38:42.217Z,35.10
2018-08-02T16:41:10.749Z,35.30
2018-08-02T16:43:39.269Z,35.30
2018-08-02T16:46:07.836Z,35.00
2018-08-02T16:48:36.372Z,34.90
2018-08-02T16:51:05.354Z,34.70
2018-08-02T16:53:33.862Z,34.40
2018-08-02T16:56:02.438Z,34.30
2018-08-02T16:58:30.965Z,34.30
2018-08-02T17:00:59.525Z,34.00
2018-08-02T17:03:28.019Z,33.90
2018-08-02T17:05:56.602Z,33.70
2018-08-02T17:08:25.091Z,33.60
2018-08-02T17:10:53.565Z,33.40
2018-08-02T17:13:22.113Z,33.30
2018-08-02T17:15:50.596Z,33.10
2018-08-02T17:18:19.101Z,32.90
2018-08-02T17:20:47.618Z,32.60
2018-08-02T17:23:16.129Z,32.50
2018-08-02T17:25:51.432Z,32.30
2018-08-02T17:28:19.881Z,32.30
2018-08-02T17:30:48.373Z,32.20
2018-08-02T17:33:17.214Z,32.10
2018-08-02T17:38:13.909Z,31.90
2018-08-02T17:40:42.412Z,31.80
2018-08-02T17:43:11.200Z,31.80
2018-08-02T17:45:39.700Z,31.70
2018-08-02T17:48:08.214Z,31.60
2018-08-02T17:50:36.757Z,31.60
2018-08-02T17:53:05.302Z,31.50
2018-08-02T17:55:33.818Z,31.40
2018-08-02T17:58:02.353Z,31.30
2018-08-02T18:00:30.895Z,31.20
2018-08-02T18:02:59.437Z,31.20
2018-08-02T18:05:27.977Z,31.10
2018-08-02T18:07:56.518Z,31.00
2018-08-02T18:10:25.050Z,30.90
2018-08-02T18:12:53.749Z,30.80
2018-08-02T18:15:22.224Z,30.80
2018-08-02T18:20:18.901Z,30.60
2018-08-02T18:22:47.438Z,30.50
2018-08-02T18:25:15.943Z,30.40
2018-08-02T18:27:44.518Z,30.40
2018-08-02T18:30:13.016Z,30.20
2018-08-02T18:32:41.571Z,30.20
2018-08-02T18:35:10.085Z,30.10
2018-08-02T18:37:38.616Z,30.00
2018-08-02T18:40:07.144Z,30.00
2018-08-02T18:42:35.715Z,29.80
2018-08-02T18:45:04.407Z,29.70
2018-08-02T18:47:32.906Z,29.60
2018-08-02T18:50:02.027Z,29.50
2018-08-02T18:52:30.640Z,29.40
2018-08-02T18:54:59.192Z,29.30
2018-08-02T18:57:27.751Z,29.20
2018-08-02T18:59:56.254Z,29.00
2018-08-02T19:02:24.826Z,28.80
2018-08-02T19:04:53.330Z,28.70
2018-08-02T19:07:21.862Z,28.60
2018-08-02T19:09:50.378Z,28.40
2018-08-02T19:12:18.972Z,28.30
2018-08-02T19:14:47.447Z,28.20
2018-08-02T19:17:15.967Z,28.10
2018-08-02T19:19:44.461Z,28.00
2018-08-02T19:22:13.131Z,27.90
2018-08-02T19:24:41.607Z,27.80
2018-08-02T19:27:10.243Z,27.70
2018-08-02T19:29:38.747Z,27.60
2018-08-02T19:32:07.283Z,27.50
2018-08-02T19:34:35.806Z,27.50
2018-08-02T19:37:04.343Z,27.40
2018-08-02T19:39:32.893Z,27.40
2018-08-02T19:42:01.410Z,27.30
2018-08-02T19:44:30.090Z,27.20
2018-08-02T19:46:58.708Z,27.10
2018-08-02T19:49:27.319Z,27.00
2018-08-02T19:51:55.771Z,26.90
2018-08-02T19:54:24.308Z,26.80
2018-08-02T19:56:52.860Z,26.80
2018-08-02T19:59:21.402Z,26.70
2018-08-02T20:01:49.895Z,26.60
2018-08-02T20:04:18.390Z,26.50
2018-08-02T20:06:47.066Z,26.40
2018-08-02T20:09:15.521Z,26.40
2018-08-02T20:11:44.075Z,26.30
2018-08-02T20:14:12.622Z,26.30
2018-08-02T20:16:41.346Z,26.20
2018-08-02T20:19:09.907Z,26.20
2018-08-02T20:21:38.602Z,26.10
2018-08-02T20:24:07.166Z,26.00
2018-08-02T20:26:35.759Z,26.00
2018-08-02T20:29:04.378Z,25.90
2018-08-02T20:31:32.979Z,25.90
2018-08-02T20:34:01.562Z,25.80
2018-08-02T20:36:30.087Z,25.70
2018-08-02T20:38:58.611Z,25.70
2018-08-02T20:41:27.118Z,25.70
2018-08-02T20:43:55.662Z,25.60
2018-08-02T20:46:24.213Z,25.60
2018-08-02T20:48:52.801Z,25.60
2018-08-02T20:51:21.354Z,25.50
2018-08-02T20:53:49.898Z,25.50
2018-08-02T20:56:18.432Z,25.50
2018-08-02T20:58:46.935Z,25.40
2018-08-02T21:01:15.466Z,25.30
2018-08-02T21:03:44.072Z,25.20
2018-08-02T21:06:12.592Z,25.10
2018-08-02T21:08:41.568Z,25.10
2018-08-02T21:11:10.090Z,25.00
2018-08-02T21:13:38.615Z,25.00
2018-08-02T21:16:07.138Z,24.90
2018-08-02T21:18:35.662Z,24.80
2018-08-02T21:21:04.203Z,24.70
2018-08-02T21:23:33.593Z,24.60
2018-08-02T21:26:02.146Z,24.50
2018-08-02T21:28:30.750Z,24.50
2018-08-02T21:30:59.231Z,24.40
2018-08-02T21:33:27.755Z,24.40
2018-08-02T21:38:24.454Z,24.30
2018-08-02T21:40:53.049Z,24.30
2018-08-02T21:43:21.527Z,24.20
2018-08-02T21:45:50.065Z,24.20
2018-08-02T21:48:18.599Z,24.20
2018-08-02T21:50:47.119Z,24.10
2018-08-02T21:53:15.635Z,24.10
2018-08-02T21:55:44.226Z,24.10
2018-08-02T21:58:12.899Z,24.00
2018-08-02T22:00:41.982Z,23.90
2018-08-02T22:03:10.629Z,23.90
2018-08-02T22:05:40.372Z,23.90
2018-08-02T22:08:10.450Z,23.80
2018-08-02T22:10:39.067Z,23.70
2018-08-02T22:13:13.044Z,23.70
2018-08-02T22:15:46.957Z,23.60
2018-08-02T22:18:15.491Z,23.60
2018-08-02T22:20:44.114Z,23.50
2018-08-02T22:23:12.666Z,23.50
2018-08-02T22:25:41.222Z,23.40
2018-08-02T22:28:09.788Z,23.40
2018-08-02T22:30:38.330Z,23.40
2018-08-02T22:33:06.963Z,23.40
2018-08-02T22:35:35.687Z,23.40
2018-08-02T22:38:04.411Z,23.40
2018-08-02T22:40:32.959Z,23.40
2018-08-02T22:43:01.535Z,23.40
2018-08-02T22:45:30.071Z,23.30
2018-08-02T22:47:58.607Z,23.30
2018-08-02T22:50:27.156Z,23.20
2018-08-02T22:52:55.705Z,23.20
2018-08-02T22:55:24.190Z,23.10
2018-08-02T22:57:52.738Z,23.10
2018-08-02T23:00:21.213Z,23.00
2018-08-02T23:02:49.733Z,23.00
2018-08-02T23:05:18.204Z,22.90
2018-08-02T23:07:46.805Z,22.80
2018-08-02T23:10:15.356Z,22.80
2018-08-02T23:12:43.848Z,22.80
2018-08-02T23:15:12.409Z,22.70
2018-08-02T23:17:40.930Z,22.70
2018-08-02T23:20:09.500Z,22.60
2018-08-02T23:22:39.965Z,22.60
2018-08-02T23:25:08.567Z,22.60
2018-08-02T23:27:37.082Z,22.60
2018-08-02T23:30:05.737Z,22.60
2018-08-02T23:32:34.242Z,22.60
2018-08-02T23:35:02.797Z,22.60
2018-08-02T23:37:31.312Z,22.50
2018-08-02T23:39:59.865Z,22.50
2018-08-02T23:42:28.430Z,22.50
2018-08-02T23:44:57.021Z,22.50
2018-08-02T23:47:25.555Z,22.40
2018-08-02T23:49:54.025Z,22.40
2018-08-02T23:52:22.548Z,22.30
2018-08-02T23:54:51.097Z,22.30
2018-08-02T23:57:19.645Z,22.30
2018-08-02T23:59:48.141Z,22.30
